sensor_id;sensor_type;location;lat;lon;timestamp;temperature;humidity
51839;DHT22;37886;53.174;6.368;2023-11-19T00:00:43;12.00;99.90
51839;DHT22;37886;53.174;6.368;2023-11-19T00:03:09;12.20;99.90
51839;DHT22;37886;53.174;6.368;2023-11-19T00:05:36;12.10;99.90
51839;DHT22;37886;53.174;6.368;2023-11-19T00:08:02;12.10;99.90
51839;DHT22;37886;53.174;6.368;2023-11-19T00:10:27;12.20;99.90
51839;DHT22;37886;53.174;6.368;2023-11-19T00:12:53;12.20;99.90
51839;DHT22;37886;53.174;6.368;2023-11-19T00:15:19;12.20;99.90
51839;DHT22;37886;53.174;6.368;2023-11-19T00:17:45;12.20;99.90
51839;DHT22;37886;53.174;6.368;2023-11-19T00:20:13;12.20;99.90
51839;DHT22;37886;53.174;6.368;2023-11-19T00:22:39;12.20;99.90
51839;DHT22;37886;53.174;6.368;2023-11-19T00:25:05;12.20;99.90
51839;DHT22;37886;53.174;6.368;2023-11-19T00:27:31;12.30;99.90
51839;DHT22;37886;53.174;6.368;2023-11-19T00:29:57;12.30;99.90
51839;DHT22;37886;53.174;6.368;2023-11-19T00:32:24;12.30;99.90
51839;DHT22;37886;53.174;6.368;2023-11-19T00:34:49;12.30;99.90
51839;DHT22;37886;53.174;6.368;2023-11-19T00:37:16;12.30;99.90
51839;DHT22;37886;53.174;6.368;2023-11-19T00:39:42;12.30;99.90
51839;DHT22;37886;53.174;6.368;2023-11-19T00:42:09;12.30;99.90
51839;DHT22;37886;53.174;6.368;2023-11-19T00:44:36;12.30;99.90
51839;DHT22;37886;53.174;6.368;2023-11-19T00:47:01;12.30;99.90
51839;DHT22;37886;53.174;6.368;2023-11-19T00:49:27;12.30;99.90
51839;DHT22;37886;53.174;6.368;2023-11-19T00:51:53;12.30;99.90
51839;DHT22;37886;53.174;6.368;2023-11-19T00:54:19;12.30;99.90
51839;DHT22;37886;53.174;6.368;2023-11-19T00:56:44;12.30;99.90
51839;DHT22;37886;53.174;6.368;2023-11-19T00:59:10;12.40;99.90
51839;DHT22;37886;53.174;6.368;2023-11-19T01:01:36;12.40;99.90
51839;DHT22;37886;53.174;6.368;2023-11-19T01:04:02;12.30;99.90
51839;DHT22;37886;53.174;6.368;2023-11-19T01:06:32;12.40;99.90
51839;DHT22;37886;53.174;6.368;2023-11-19T01:08:58;12.40;99.90
51839;DHT22;37886;53.174;6.368;2023-11-19T01:11:25;12.30;99.90
51839;DHT22;37886;53.174;6.368;2023-11-19T01:13:51;12.30;99.90
51839;DHT22;37886;53.174;6.368;2023-11-19T01:16:18;12.40;99.90
51839;DHT22;37886;53.174;6.368;2023-11-19T01:18:44;12.40;99.90
51839;DHT22;37886;53.174;6.368;2023-11-19T01:21:12;12.40;99.90
51839;DHT22;37886;53.174;6.368;2023-11-19T01:23:40;12.40;99.90
51839;DHT22;37886;53.174;6.368;2023-11-19T01:26:08;12.40;99.90
51839;DHT22;37886;53.174;6.368;2023-11-19T01:28:36;12.40;99.90
51839;DHT22;37886;53.174;6.368;2023-11-19T01:31:02;12.40;99.90
51839;DHT22;37886;53.174;6.368;2023-11-19T01:33:29;12.40;99.90
51839;DHT22;37886;53.174;6.368;2023-11-19T01:35:55;12.40;99.90
51839;DHT22;37886;53.174;6.368;2023-11-19T01:38:24;12.40;99.90
51839;DHT22;37886;53.174;6.368;2023-11-19T01:40:50;12.40;99.90
51839;DHT22;37886;53.174;6.368;2023-11-19T01:43:51;12.40;99.90
51839;DHT22;37886;53.174;6.368;2023-11-19T01:46:17;12.40;99.90
51839;DHT22;37886;53.174;6.368;2023-11-19T01:48:46;12.40;99.90
51839;DHT22;37886;53.174;6.368;2023-11-19T01:51:13;12.30;99.90
51839;DHT22;37886;53.174;6.368;2023-11-19T01:53:43;12.30;99.90
51839;DHT22;37886;53.174;6.368;2023-11-19T01:56:09;12.30;99.90
51839;DHT22;37886;53.174;6.368;2023-11-19T01:58:37;12.30;99.90
51839;DHT22;37886;53.174;6.368;2023-11-19T02:01:05;12.30;99.90
51839;DHT22;37886;53.174;6.368;2023-11-19T02:03:32;12.20;99.90
51839;DHT22;37886;53.174;6.368;2023-11-19T02:05:59;12.10;99.90
51839;DHT22;37886;53.174;6.368;2023-11-19T02:08:25;12.10;99.90
51839;DHT22;37886;53.174;6.368;2023-11-19T02:10:52;12.00;99.90
51839;DHT22;37886;53.174;6.368;2023-11-19T02:13:18;12.00;99.90
51839;DHT22;37886;53.174;6.368;2023-11-19T02:15:44;12.00;99.90
51839;DHT22;37886;53.174;6.368;2023-11-19T02:18:23;12.00;99.90
51839;DHT22;37886;53.174;6.368;2023-11-19T02:20:50;12.00;99.90
51839;DHT22;37886;53.174;6.368;2023-11-19T02:23:16;12.10;99.90
51839;DHT22;37886;53.174;6.368;2023-11-19T02:25:45;12.10;99.90
51839;DHT22;37886;53.174;6.368;2023-11-19T02:28:13;12.00;99.90
51839;DHT22;37886;53.174;6.368;2023-11-19T02:30:38;12.00;99.90
51839;DHT22;37886;53.174;6.368;2023-11-19T02:33:04;12.00;99.90
51839;DHT22;37886;53.174;6.368;2023-11-19T02:35:34;12.00;99.90
51839;DHT22;37886;53.174;6.368;2023-11-19T02:38:00;12.00;99.90
51839;DHT22;37886;53.174;6.368;2023-11-19T02:40:32;12.00;99.90
51839;DHT22;37886;53.174;6.368;2023-11-19T02:42:58;12.00;99.90
51839;DHT22;37886;53.174;6.368;2023-11-19T02:45:24;12.00;99.90
51839;DHT22;37886;53.174;6.368;2023-11-19T02:47:51;12.00;99.90
51839;DHT22;37886;53.174;6.368;2023-11-19T02:50:19;12.00;99.90
51839;DHT22;37886;53.174;6.368;2023-11-19T02:52:52;12.00;99.90
51839;DHT22;37886;53.174;6.368;2023-11-19T02:55:19;12.10;99.90
51839;DHT22;37886;53.174;6.368;2023-11-19T02:57:45;12.00;99.90
51839;DHT22;37886;53.174;6.368;2023-11-19T03:00:18;12.00;99.90
51839;DHT22;37886;53.174;6.368;2023-11-19T03:02:49;11.90;99.90
51839;DHT22;37886;53.174;6.368;2023-11-19T03:05:24;12.00;99.90
51839;DHT22;37886;53.174;6.368;2023-11-19T03:07:50;11.90;99.90
51839;DHT22;37886;53.174;6.368;2023-11-19T03:10:16;11.90;99.90
51839;DHT22;37886;53.174;6.368;2023-11-19T03:12:43;11.80;99.90
51839;DHT22;37886;53.174;6.368;2023-11-19T03:15:09;11.90;99.90
51839;DHT22;37886;53.174;6.368;2023-11-19T03:17:44;11.90;99.90
51839;DHT22;37886;53.174;6.368;2023-11-19T03:20:11;11.90;99.90
51839;DHT22;37886;53.174;6.368;2023-11-19T03:22:41;12.00;99.90
51839;DHT22;37886;53.174;6.368;2023-11-19T03:25:07;11.90;99.90
51839;DHT22;37886;53.174;6.368;2023-11-19T03:27:35;11.90;99.90
51839;DHT22;37886;53.174;6.368;2023-11-19T03:30:02;11.90;99.90
51839;DHT22;37886;53.174;6.368;2023-11-19T03:32:31;11.90;99.90
51839;DHT22;37886;53.174;6.368;2023-11-19T03:34:57;12.00;99.90
51839;DHT22;37886;53.174;6.368;2023-11-19T03:37:23;11.90;99.90
51839;DHT22;37886;53.174;6.368;2023-11-19T03:39:49;11.90;99.90
51839;DHT22;37886;53.174;6.368;2023-11-19T03:42:15;12.00;99.90
51839;DHT22;37886;53.174;6.368;2023-11-19T03:44:40;11.90;99.90
51839;DHT22;37886;53.174;6.368;2023-11-19T03:47:06;11.90;99.90
51839;DHT22;37886;53.174;6.368;2023-11-19T03:49:32;11.90;99.90
51839;DHT22;37886;53.174;6.368;2023-11-19T03:51:57;11.90;99.90
51839;DHT22;37886;53.174;6.368;2023-11-19T03:54:23;12.00;99.90
51839;DHT22;37886;53.174;6.368;2023-11-19T03:56:49;12.00;99.90
51839;DHT22;37886;53.174;6.368;2023-11-19T03:59:15;12.00;99.90
51839;DHT22;37886;53.174;6.368;2023-11-19T04:01:41;12.00;99.90
51839;DHT22;37886;53.174;6.368;2023-11-19T04:04:07;12.10;99.90
51839;DHT22;37886;53.174;6.368;2023-11-19T04:06:32;12.00;99.90
51839;DHT22;37886;53.174;6.368;2023-11-19T04:08:58;12.00;99.90
51839;DHT22;37886;53.174;6.368;2023-11-19T04:11:24;12.00;99.90
51839;DHT22;37886;53.174;6.368;2023-11-19T04:13:49;11.90;99.90
51839;DHT22;37886;53.174;6.368;2023-11-19T04:16:15;11.90;99.90
51839;DHT22;37886;53.174;6.368;2023-11-19T04:18:41;12.00;99.90
51839;DHT22;37886;53.174;6.368;2023-11-19T04:21:07;12.00;99.90
51839;DHT22;37886;53.174;6.368;2023-11-19T04:23:33;12.00;99.90
51839;DHT22;37886;53.174;6.368;2023-11-19T04:26:02;12.00;99.90
51839;DHT22;37886;53.174;6.368;2023-11-19T04:28:28;11.90;99.90
51839;DHT22;37886;53.174;6.368;2023-11-19T04:30:53;11.90;99.90
51839;DHT22;37886;53.174;6.368;2023-11-19T04:33:20;11.90;99.90
51839;DHT22;37886;53.174;6.368;2023-11-19T04:35:45;11.90;99.90
51839;DHT22;37886;53.174;6.368;2023-11-19T04:38:11;11.90;99.90
51839;DHT22;37886;53.174;6.368;2023-11-19T04:40:37;11.90;99.90
51839;DHT22;37886;53.174;6.368;2023-11-19T04:43:02;12.10;99.90
51839;DHT22;37886;53.174;6.368;2023-11-19T04:45:28;12.00;99.90
51839;DHT22;37886;53.174;6.368;2023-11-19T04:47:54;12.00;99.90
51839;DHT22;37886;53.174;6.368;2023-11-19T04:50:19;12.00;99.90
51839;DHT22;37886;53.174;6.368;2023-11-19T04:52:45;12.00;99.90
51839;DHT22;37886;53.174;6.368;2023-11-19T04:55:12;12.00;99.90
51839;DHT22;37886;53.174;6.368;2023-11-19T04:57:40;11.90;99.90
51839;DHT22;37886;53.174;6.368;2023-11-19T05:00:06;12.00;99.90
51839;DHT22;37886;53.174;6.368;2023-11-19T05:02:34;12.00;99.90
51839;DHT22;37886;53.174;6.368;2023-11-19T05:05:01;12.00;99.90
51839;DHT22;37886;53.174;6.368;2023-11-19T05:07:27;12.00;99.90
51839;DHT22;37886;53.174;6.368;2023-11-19T05:09:52;12.00;99.90
51839;DHT22;37886;53.174;6.368;2023-11-19T05:12:18;12.00;99.90
51839;DHT22;37886;53.174;6.368;2023-11-19T05:14:44;12.00;99.90
51839;DHT22;37886;53.174;6.368;2023-11-19T05:17:15;12.00;99.90
51839;DHT22;37886;53.174;6.368;2023-11-19T05:19:41;12.00;99.90
51839;DHT22;37886;53.174;6.368;2023-11-19T05:22:06;12.00;99.90
51839;DHT22;37886;53.174;6.368;2023-11-19T05:24:33;12.00;99.90
51839;DHT22;37886;53.174;6.368;2023-11-19T05:26:58;11.90;99.90
51839;DHT22;37886;53.174;6.368;2023-11-19T05:29:24;11.90;99.90
51839;DHT22;37886;53.174;6.368;2023-11-19T05:31:50;11.90;99.90
51839;DHT22;37886;53.174;6.368;2023-11-19T05:34:16;12.00;99.90
51839;DHT22;37886;53.174;6.368;2023-11-19T05:36:41;11.90;99.90
51839;DHT22;37886;53.174;6.368;2023-11-19T05:39:07;11.90;99.90
51839;DHT22;37886;53.174;6.368;2023-11-19T05:41:33;11.90;99.90
51839;DHT22;37886;53.174;6.368;2023-11-19T05:43:58;11.80;99.90
51839;DHT22;37886;53.174;6.368;2023-11-19T05:46:24;11.80;99.90
51839;DHT22;37886;53.174;6.368;2023-11-19T05:48:52;11.80;99.90
51839;DHT22;37886;53.174;6.368;2023-11-19T05:51:18;11.80;99.90
51839;DHT22;37886;53.174;6.368;2023-11-19T05:53:44;11.80;99.90
51839;DHT22;37886;53.174;6.368;2023-11-19T05:56:13;11.70;99.90
51839;DHT22;37886;53.174;6.368;2023-11-19T05:58:41;11.80;99.90
51839;DHT22;37886;53.174;6.368;2023-11-19T06:01:07;11.70;99.90
51839;DHT22;37886;53.174;6.368;2023-11-19T06:03:33;11.70;99.90
51839;DHT22;37886;53.174;6.368;2023-11-19T06:05:58;11.70;99.90
51839;DHT22;37886;53.174;6.368;2023-11-19T06:08:24;11.70;99.90
51839;DHT22;37886;53.174;6.368;2023-11-19T06:10:52;11.70;99.90
51839;DHT22;37886;53.174;6.368;2023-11-19T06:13:18;11.60;99.90
51839;DHT22;37886;53.174;6.368;2023-11-19T06:15:45;11.60;99.90
51839;DHT22;37886;53.174;6.368;2023-11-19T06:18:11;11.50;99.90
51839;DHT22;37886;53.174;6.368;2023-11-19T06:20:40;11.60;99.90
51839;DHT22;37886;53.174;6.368;2023-11-19T06:23:06;11.60;99.90
51839;DHT22;37886;53.174;6.368;2023-11-19T06:25:32;11.60;99.90
51839;DHT22;37886;53.174;6.368;2023-11-19T06:27:58;11.60;99.90
51839;DHT22;37886;53.174;6.368;2023-11-19T06:30:24;11.60;99.90
51839;DHT22;37886;53.174;6.368;2023-11-19T06:32:51;11.50;99.90
51839;DHT22;37886;53.174;6.368;2023-11-19T06:35:17;11.60;99.90
51839;DHT22;37886;53.174;6.368;2023-11-19T06:37:42;11.60;99.90
51839;DHT22;37886;53.174;6.368;2023-11-19T06:40:09;11.50;99.90
51839;DHT22;37886;53.174;6.368;2023-11-19T06:42:35;11.50;99.90
51839;DHT22;37886;53.174;6.368;2023-11-19T06:45:02;11.50;99.90
51839;DHT22;37886;53.174;6.368;2023-11-19T06:47:29;11.40;99.90
51839;DHT22;37886;53.174;6.368;2023-11-19T06:49:55;11.40;99.90
51839;DHT22;37886;53.174;6.368;2023-11-19T06:52:21;11.40;99.90
51839;DHT22;37886;53.174;6.368;2023-11-19T06:54:47;11.40;99.90
51839;DHT22;37886;53.174;6.368;2023-11-19T06:57:13;11.40;99.90
51839;DHT22;37886;53.174;6.368;2023-11-19T06:59:39;11.50;99.90
51839;DHT22;37886;53.174;6.368;2023-11-19T07:02:05;11.40;99.90
51839;DHT22;37886;53.174;6.368;2023-11-19T07:04:31;11.30;99.90
51839;DHT22;37886;53.174;6.368;2023-11-19T07:06:59;11.20;99.90
51839;DHT22;37886;53.174;6.368;2023-11-19T07:09:25;11.10;99.90
51839;DHT22;37886;53.174;6.368;2023-11-19T07:11:51;11.20;99.90
51839;DHT22;37886;53.174;6.368;2023-11-19T07:14:20;11.10;99.90
51839;DHT22;37886;53.174;6.368;2023-11-19T07:16:46;11.10;99.90
51839;DHT22;37886;53.174;6.368;2023-11-19T07:19:12;11.10;99.90
51839;DHT22;37886;53.174;6.368;2023-11-19T07:21:41;11.10;99.90
51839;DHT22;37886;53.174;6.368;2023-11-19T07:24:10;11.10;99.90
51839;DHT22;37886;53.174;6.368;2023-11-19T07:26:45;11.00;99.90
51839;DHT22;37886;53.174;6.368;2023-11-19T07:29:13;11.10;99.90
51839;DHT22;37886;53.174;6.368;2023-11-19T07:31:38;11.10;99.90
51839;DHT22;37886;53.174;6.368;2023-11-19T07:34:04;11.10;99.90
51839;DHT22;37886;53.174;6.368;2023-11-19T07:36:32;11.20;99.90
51839;DHT22;37886;53.174;6.368;2023-11-19T07:38:58;11.20;99.90
51839;DHT22;37886;53.174;6.368;2023-11-19T07:41:24;11.20;99.90
51839;DHT22;37886;53.174;6.368;2023-11-19T07:43:51;11.30;99.90
51839;DHT22;37886;53.174;6.368;2023-11-19T07:46:17;11.20;99.90
51839;DHT22;37886;53.174;6.368;2023-11-19T07:48:45;11.20;99.90
51839;DHT22;37886;53.174;6.368;2023-11-19T07:51:13;11.20;99.90
51839;DHT22;37886;53.174;6.368;2023-11-19T07:53:39;11.20;99.90
51839;DHT22;37886;53.174;6.368;2023-11-19T07:56:06;11.30;99.90
51839;DHT22;37886;53.174;6.368;2023-11-19T07:58:32;11.40;99.90
51839;DHT22;37886;53.174;6.368;2023-11-19T08:00:58;11.40;99.90
51839;DHT22;37886;53.174;6.368;2023-11-19T08:03:24;11.40;99.90
51839;DHT22;37886;53.174;6.368;2023-11-19T08:05:50;11.30;99.90
51839;DHT22;37886;53.174;6.368;2023-11-19T08:08:16;11.40;99.90
51839;DHT22;37886;53.174;6.368;2023-11-19T08:10:42;11.40;99.90
51839;DHT22;37886;53.174;6.368;2023-11-19T08:13:13;11.40;99.90
51839;DHT22;37886;53.174;6.368;2023-11-19T08:15:38;11.40;99.90
51839;DHT22;37886;53.174;6.368;2023-11-19T08:18:04;11.40;99.90
51839;DHT22;37886;53.174;6.368;2023-11-19T08:20:30;11.50;99.90
51839;DHT22;37886;53.174;6.368;2023-11-19T08:22:56;11.40;99.90
51839;DHT22;37886;53.174;6.368;2023-11-19T08:25:22;11.50;99.90
51839;DHT22;37886;53.174;6.368;2023-11-19T08:27:47;11.40;99.90
51839;DHT22;37886;53.174;6.368;2023-11-19T08:30:13;11.50;99.90
51839;DHT22;37886;53.174;6.368;2023-11-19T08:32:39;11.50;99.90
51839;DHT22;37886;53.174;6.368;2023-11-19T08:35:05;11.40;99.90
51839;DHT22;37886;53.174;6.368;2023-11-19T08:37:31;11.30;99.90
51839;DHT22;37886;53.174;6.368;2023-11-19T08:39:58;11.20;99.90
51839;DHT22;37886;53.174;6.368;2023-11-19T08:42:23;11.10;99.90
51839;DHT22;37886;53.174;6.368;2023-11-19T08:44:50;11.10;99.90
51839;DHT22;37886;53.174;6.368;2023-11-19T08:47:16;11.10;99.90
51839;DHT22;37886;53.174;6.368;2023-11-19T08:49:44;11.10;99.90
51839;DHT22;37886;53.174;6.368;2023-11-19T08:52:10;11.10;99.90
51839;DHT22;37886;53.174;6.368;2023-11-19T08:54:36;11.20;99.90
51839;DHT22;37886;53.174;6.368;2023-11-19T08:57:03;11.30;99.90
51839;DHT22;37886;53.174;6.368;2023-11-19T08:59:29;11.30;99.90
51839;DHT22;37886;53.174;6.368;2023-11-19T09:01:55;11.40;99.90
51839;DHT22;37886;53.174;6.368;2023-11-19T09:04:21;11.50;99.90
51839;DHT22;37886;53.174;6.368;2023-11-19T09:06:48;11.60;99.90
51839;DHT22;37886;53.174;6.368;2023-11-19T09:09:14;11.60;99.90
51839;DHT22;37886;53.174;6.368;2023-11-19T09:11:40;11.60;99.90
51839;DHT22;37886;53.174;6.368;2023-11-19T09:14:06;11.60;99.90
51839;DHT22;37886;53.174;6.368;2023-11-19T09:16:32;11.50;99.90
51839;DHT22;37886;53.174;6.368;2023-11-19T09:18:58;11.50;99.90
51839;DHT22;37886;53.174;6.368;2023-11-19T09:21:25;11.50;99.90
51839;DHT22;37886;53.174;6.368;2023-11-19T09:23:51;11.50;99.90
51839;DHT22;37886;53.174;6.368;2023-11-19T09:26:18;11.50;99.90
51839;DHT22;37886;53.174;6.368;2023-11-19T09:28:44;11.60;99.90
51839;DHT22;37886;53.174;6.368;2023-11-19T09:31:17;11.60;99.90
51839;DHT22;37886;53.174;6.368;2023-11-19T09:33:43;11.70;99.90
51839;DHT22;37886;53.174;6.368;2023-11-19T09:36:09;11.80;99.90
51839;DHT22;37886;53.174;6.368;2023-11-19T09:38:36;11.80;99.90
51839;DHT22;37886;53.174;6.368;2023-11-19T09:41:09;11.80;99.90
51839;DHT22;37886;53.174;6.368;2023-11-19T09:43:37;11.90;99.90
51839;DHT22;37886;53.174;6.368;2023-11-19T09:46:09;11.90;99.90
51839;DHT22;37886;53.174;6.368;2023-11-19T09:48:38;11.90;99.90
51839;DHT22;37886;53.174;6.368;2023-11-19T09:51:07;12.00;99.90
51839;DHT22;37886;53.174;6.368;2023-11-19T09:53:34;12.00;99.90
51839;DHT22;37886;53.174;6.368;2023-11-19T09:56:03;12.00;99.90
51839;DHT22;37886;53.174;6.368;2023-11-19T09:58:32;12.10;99.90
51839;DHT22;37886;53.174;6.368;2023-11-19T10:00:59;12.10;99.90
51839;DHT22;37886;53.174;6.368;2023-11-19T10:03:27;12.10;99.90
51839;DHT22;37886;53.174;6.368;2023-11-19T10:05:57;12.10;99.90
51839;DHT22;37886;53.174;6.368;2023-11-19T10:08:23;12.10;99.90
51839;DHT22;37886;53.174;6.368;2023-11-19T10:10:49;12.10;99.90
51839;DHT22;37886;53.174;6.368;2023-11-19T10:13:14;12.00;99.90
51839;DHT22;37886;53.174;6.368;2023-11-19T10:15:40;12.00;99.90
51839;DHT22;37886;53.174;6.368;2023-11-19T10:18:07;12.00;99.90
51839;DHT22;37886;53.174;6.368;2023-11-19T10:20:36;12.00;99.90
51839;DHT22;37886;53.174;6.368;2023-11-19T10:23:02;12.00;99.90
51839;DHT22;37886;53.174;6.368;2023-11-19T10:25:29;11.90;99.90
51839;DHT22;37886;53.174;6.368;2023-11-19T10:27:56;11.80;99.90
51839;DHT22;37886;53.174;6.368;2023-11-19T10:30:23;11.80;99.90
51839;DHT22;37886;53.174;6.368;2023-11-19T10:33:08;11.90;99.90
51839;DHT22;37886;53.174;6.368;2023-11-19T10:35:36;11.80;99.90
51839;DHT22;37886;53.174;6.368;2023-11-19T10:38:15;11.80;99.90
51839;DHT22;37886;53.174;6.368;2023-11-19T10:40:41;11.90;99.90
51839;DHT22;37886;53.174;6.368;2023-11-19T10:43:07;11.90;99.90
51839;DHT22;37886;53.174;6.368;2023-11-19T10:45:37;11.90;99.90
51839;DHT22;37886;53.174;6.368;2023-11-19T10:48:04;11.90;99.90
51839;DHT22;37886;53.174;6.368;2023-11-19T10:50:34;12.00;99.90
51839;DHT22;37886;53.174;6.368;2023-11-19T10:53:00;12.00;99.90
51839;DHT22;37886;53.174;6.368;2023-11-19T10:55:33;12.00;99.90
51839;DHT22;37886;53.174;6.368;2023-11-19T10:58:08;12.10;99.90
51839;DHT22;37886;53.174;6.368;2023-11-19T11:00:59;12.20;99.90
51839;DHT22;37886;53.174;6.368;2023-11-19T11:03:31;12.20;99.90
51839;DHT22;37886;53.174;6.368;2023-11-19T11:06:03;12.30;99.90
51839;DHT22;37886;53.174;6.368;2023-11-19T11:08:30;12.30;99.90
51839;DHT22;37886;53.174;6.368;2023-11-19T11:10:57;12.30;99.90
51839;DHT22;37886;53.174;6.368;2023-11-19T11:13:27;12.40;99.90
51839;DHT22;37886;53.174;6.368;2023-11-19T11:15:55;12.30;99.90
51839;DHT22;37886;53.174;6.368;2023-11-19T11:18:23;12.30;99.90
51839;DHT22;37886;53.174;6.368;2023-11-19T11:21:15;12.30;99.90
51839;DHT22;37886;53.174;6.368;2023-11-19T11:23:53;12.30;99.90
51839;DHT22;37886;53.174;6.368;2023-11-19T11:26:29;12.40;99.90
51839;DHT22;37886;53.174;6.368;2023-11-19T11:37:21;12.50;99.90
51839;DHT22;37886;53.174;6.368;2023-11-19T11:39:50;12.50;99.90
51839;DHT22;37886;53.174;6.368;2023-11-19T11:45:08;12.60;99.90
51839;DHT22;37886;53.174;6.368;2023-11-19T11:50:19;12.50;99.90
51839;DHT22;37886;53.174;6.368;2023-11-19T11:55:28;12.40;99.90
51839;DHT22;37886;53.174;6.368;2023-11-19T11:57:59;12.20;99.90
51839;DHT22;37886;53.174;6.368;2023-11-19T12:00:39;12.10;99.90
51839;DHT22;37886;53.174;6.368;2023-11-19T12:03:06;11.90;99.90
51839;DHT22;37886;53.174;6.368;2023-11-19T12:05:33;12.00;99.90
51839;DHT22;37886;53.174;6.368;2023-11-19T12:08:04;11.90;99.90
51839;DHT22;37886;53.174;6.368;2023-11-19T12:10:36;12.00;99.90
51839;DHT22;37886;53.174;6.368;2023-11-19T12:13:05;12.30;99.90
51839;DHT22;37886;53.174;6.368;2023-11-19T12:15:32;12.50;99.90
51839;DHT22;37886;53.174;6.368;2023-11-19T12:17:58;12.50;99.90
51839;DHT22;37886;53.174;6.368;2023-11-19T12:20:26;12.80;99.90
51839;DHT22;37886;53.174;6.368;2023-11-19T12:22:53;13.00;99.90
51839;DHT22;37886;53.174;6.368;2023-11-19T12:25:19;13.00;99.90
51839;DHT22;37886;53.174;6.368;2023-11-19T12:27:50;12.90;99.90
51839;DHT22;37886;53.174;6.368;2023-11-19T12:30:23;13.00;99.90
51839;DHT22;37886;53.174;6.368;2023-11-19T12:32:50;13.10;99.90
51839;DHT22;37886;53.174;6.368;2023-11-19T12:35:15;13.20;99.90
51839;DHT22;37886;53.174;6.368;2023-11-19T12:37:49;13.20;99.90
51839;DHT22;37886;53.174;6.368;2023-11-19T12:40:20;13.10;99.90
51839;DHT22;37886;53.174;6.368;2023-11-19T12:42:47;13.00;99.90
51839;DHT22;37886;53.174;6.368;2023-11-19T12:45:14;12.90;99.90
51839;DHT22;37886;53.174;6.368;2023-11-19T12:47:42;12.80;99.90
51839;DHT22;37886;53.174;6.368;2023-11-19T12:50:09;12.80;99.90
51839;DHT22;37886;53.174;6.368;2023-11-19T12:52:35;12.70;99.90
51839;DHT22;37886;53.174;6.368;2023-11-19T12:55:23;12.70;99.90
51839;DHT22;37886;53.174;6.368;2023-11-19T12:57:49;12.70;99.90
51839;DHT22;37886;53.174;6.368;2023-11-19T13:00:20;12.60;99.90
51839;DHT22;37886;53.174;6.368;2023-11-19T13:02:47;12.60;99.90
51839;DHT22;37886;53.174;6.368;2023-11-19T13:05:30;12.70;99.90
51839;DHT22;37886;53.174;6.368;2023-11-19T13:08:06;12.60;99.90
51839;DHT22;37886;53.174;6.368;2023-11-19T13:10:33;12.70;99.90
51839;DHT22;37886;53.174;6.368;2023-11-19T13:13:06;12.60;99.90
51839;DHT22;37886;53.174;6.368;2023-11-19T13:15:34;12.60;99.90
51839;DHT22;37886;53.174;6.368;2023-11-19T13:18:00;12.50;99.90
51839;DHT22;37886;53.174;6.368;2023-11-19T13:20:26;12.50;99.90
51839;DHT22;37886;53.174;6.368;2023-11-19T13:23:07;12.50;99.90
51839;DHT22;37886;53.174;6.368;2023-11-19T13:25:33;12.50;99.90
51839;DHT22;37886;53.174;6.368;2023-11-19T13:27:59;12.50;99.90
51839;DHT22;37886;53.174;6.368;2023-11-19T13:30:25;12.50;99.90
51839;DHT22;37886;53.174;6.368;2023-11-19T13:32:52;12.50;99.90
51839;DHT22;37886;53.174;6.368;2023-11-19T13:35:20;12.50;99.90
51839;DHT22;37886;53.174;6.368;2023-11-19T13:37:46;12.40;99.90
51839;DHT22;37886;53.174;6.368;2023-11-19T13:40:12;12.50;99.90
51839;DHT22;37886;53.174;6.368;2023-11-19T13:42:41;12.40;99.90
51839;DHT22;37886;53.174;6.368;2023-11-19T13:45:12;12.40;99.90
51839;DHT22;37886;53.174;6.368;2023-11-19T13:47:39;12.40;99.90
51839;DHT22;37886;53.174;6.368;2023-11-19T13:50:13;12.40;99.90
51839;DHT22;37886;53.174;6.368;2023-11-19T13:52:41;12.40;99.90
51839;DHT22;37886;53.174;6.368;2023-11-19T13:55:09;12.30;99.90
51839;DHT22;37886;53.174;6.368;2023-11-19T13:57:36;12.20;99.90
51839;DHT22;37886;53.174;6.368;2023-11-19T14:00:03;12.10;99.90
51839;DHT22;37886;53.174;6.368;2023-11-19T14:02:35;12.10;99.90
51839;DHT22;37886;53.174;6.368;2023-11-19T14:05:00;12.20;99.90
51839;DHT22;37886;53.174;6.368;2023-11-19T14:07:27;12.20;99.90
51839;DHT22;37886;53.174;6.368;2023-11-19T14:09:53;12.20;99.90
51839;DHT22;37886;53.174;6.368;2023-11-19T14:12:19;12.30;99.90
51839;DHT22;37886;53.174;6.368;2023-11-19T14:14:45;12.30;99.90
51839;DHT22;37886;53.174;6.368;2023-11-19T14:17:11;12.30;99.90
51839;DHT22;37886;53.174;6.368;2023-11-19T14:19:37;12.30;99.90
51839;DHT22;37886;53.174;6.368;2023-11-19T14:22:05;12.30;99.90
51839;DHT22;37886;53.174;6.368;2023-11-19T14:24:31;12.30;99.90
51839;DHT22;37886;53.174;6.368;2023-11-19T14:26:57;12.20;99.90
51839;DHT22;37886;53.174;6.368;2023-11-19T14:29:24;12.20;99.90
51839;DHT22;37886;53.174;6.368;2023-11-19T14:31:55;12.20;99.90
51839;DHT22;37886;53.174;6.368;2023-11-19T14:34:21;12.10;99.90
51839;DHT22;37886;53.174;6.368;2023-11-19T14:36:47;12.10;99.90
51839;DHT22;37886;53.174;6.368;2023-11-19T14:39:13;12.10;99.90
51839;DHT22;37886;53.174;6.368;2023-11-19T14:41:39;12.00;99.90
51839;DHT22;37886;53.174;6.368;2023-11-19T14:44:05;12.00;99.90
51839;DHT22;37886;53.174;6.368;2023-11-19T14:46:31;11.90;99.90
51839;DHT22;37886;53.174;6.368;2023-11-19T14:48:57;11.90;99.90
51839;DHT22;37886;53.174;6.368;2023-11-19T14:51:23;11.80;99.90
51839;DHT22;37886;53.174;6.368;2023-11-19T14:53:48;11.60;99.90
51839;DHT22;37886;53.174;6.368;2023-11-19T14:56:14;11.50;99.90
51839;DHT22;37886;53.174;6.368;2023-11-19T14:58:40;11.40;99.90
51839;DHT22;37886;53.174;6.368;2023-11-19T15:01:06;11.50;99.90
51839;DHT22;37886;53.174;6.368;2023-11-19T15:03:33;11.60;99.90
51839;DHT22;37886;53.174;6.368;2023-11-19T15:05:59;11.60;99.90
51839;DHT22;37886;53.174;6.368;2023-11-19T15:08:25;11.70;99.90
51839;DHT22;37886;53.174;6.368;2023-11-19T15:10:51;11.70;99.90
51839;DHT22;37886;53.174;6.368;2023-11-19T15:13:16;11.70;99.90
51839;DHT22;37886;53.174;6.368;2023-11-19T15:15:42;11.70;99.90
51839;DHT22;37886;53.174;6.368;2023-11-19T15:18:08;11.80;99.90
51839;DHT22;37886;53.174;6.368;2023-11-19T15:20:35;11.80;99.90
51839;DHT22;37886;53.174;6.368;2023-11-19T15:23:01;11.90;99.90
51839;DHT22;37886;53.174;6.368;2023-11-19T15:25:28;11.80;99.90
51839;DHT22;37886;53.174;6.368;2023-11-19T15:27:53;11.90;99.90
51839;DHT22;37886;53.174;6.368;2023-11-19T15:30:19;11.90;99.90
51839;DHT22;37886;53.174;6.368;2023-11-19T15:32:45;11.80;99.90
51839;DHT22;37886;53.174;6.368;2023-11-19T15:35:12;11.80;99.90
51839;DHT22;37886;53.174;6.368;2023-11-19T15:37:38;11.80;99.90
51839;DHT22;37886;53.174;6.368;2023-11-19T15:40:09;11.70;99.90
51839;DHT22;37886;53.174;6.368;2023-11-19T15:42:41;11.70;99.90
51839;DHT22;37886;53.174;6.368;2023-11-19T15:45:07;11.70;99.90
51839;DHT22;37886;53.174;6.368;2023-11-19T15:47:33;11.60;99.90